createdAt,value
2023-04-09T00:01:46.358Z,35.67
2023-04-09T00:04:14.124Z,36.03
2023-04-09T00:06:42.064Z,36.65
2023-04-09T00:09:09.748Z,38.33
2023-04-09T00:11:37.724Z,36.70
2023-04-09T00:14:05.488Z,38.33
2023-04-09T00:16:33.548Z,36.08
2023-04-09T00:19:01.304Z,38.50
2023-04-09T00:21:29.229Z,35.95
2023-04-09T00:23:56.852Z,34.38
2023-04-09T00:26:24.776Z,35.47
2023-04-09T00:28:52.673Z,38.35
2023-04-09T00:31:21.255Z,33.90
2023-04-09T00:33:49.014Z,37.58
2023-04-09T00:36:17.026Z,33.17
2023-04-09T00:38:45.431Z,34.28
2023-04-09T00:41:13.457Z,37.88
2023-04-09T00:43:41.088Z,36.75
2023-04-09T00:46:09.307Z,34.85
2023-04-09T00:48:37.079Z,36.30
2023-04-09T00:51:05.327Z,37.15
2023-04-09T00:53:33.101Z,36.80
2023-04-09T00:56:01.862Z,38.50
2023-04-09T00:58:29.621Z,40.72
2023-04-09T01:00:57.609Z,41.05
2023-04-09T01:03:25.571Z,35.58
2023-04-09T01:06:44.004Z,38.13
2023-04-09T01:09:43.681Z,36.35
2023-04-09T01:12:24.390Z,37.17
2023-04-09T01:14:59.335Z,38.00
2023-04-09T01:17:42.870Z,38.22
2023-04-09T01:20:19.587Z,39.45
2023-04-09T01:22:52.864Z,36.70
2023-04-09T01:28:06.987Z,43.90
2023-04-09T01:30:35.376Z,39.80
2023-04-09T01:33:05.284Z,38.80
2023-04-09T01:35:33.119Z,36.00
2023-04-09T01:38:03.905Z,38.65
2023-04-09T01:40:31.686Z,42.78
2023-04-09T01:43:01.394Z,42.00
2023-04-09T01:45:29.267Z,37.90
2023-04-09T01:47:58.023Z,49.92
2023-04-09T01:50:26.044Z,43.28
2023-04-09T01:52:54.300Z,41.50
2023-04-09T01:55:21.921Z,43.60
2023-04-09T01:57:50.400Z,42.50
2023-04-09T02:00:18.294Z,44.72
2023-04-09T02:03:04.001Z,45.70
2023-04-09T02:05:37.541Z,43.08
2023-04-09T02:08:10.953Z,45.55
2023-04-09T02:10:40.510Z,40.17
2023-04-09T02:13:13.848Z,42.60
2023-04-09T02:15:43.628Z,41.75
2023-04-09T02:18:28.825Z,43.47
2023-04-09T02:20:57.433Z,45.00
2023-04-09T02:23:27.096Z,41.70
2023-04-09T02:25:55.326Z,39.97
2023-04-09T02:28:23.222Z,39.53
2023-04-09T02:30:52.786Z,37.78
2023-04-09T02:33:20.785Z,38.70
2023-04-09T02:35:48.711Z,37.88
2023-04-09T02:38:16.696Z,39.28
2023-04-09T02:40:44.385Z,42.83
2023-04-09T02:43:12.549Z,40.70
2023-04-09T02:45:40.305Z,40.20
2023-04-09T02:48:08.184Z,42.85
2023-04-09T02:50:36.696Z,40.80
2023-04-09T02:53:04.743Z,45.60
2023-04-09T02:55:32.616Z,44.10
2023-04-09T02:58:00.813Z,42.72
2023-04-09T03:00:28.522Z,45.88
2023-04-09T03:02:58.141Z,42.50
2023-04-09T03:05:25.995Z,44.05
2023-04-09T03:07:54.987Z,46.45
2023-04-09T03:10:22.858Z,45.10
2023-04-09T03:12:50.800Z,42.35
2023-04-09T03:15:18.557Z,42.38
2023-04-09T03:17:46.514Z,40.45
2023-04-09T03:20:14.810Z,42.28
2023-04-09T03:22:42.983Z,39.75
2023-04-09T03:25:28.384Z,39.90
2023-04-09T03:27:56.969Z,43.70
2023-04-09T03:30:36.509Z,41.05
2023-04-09T03:33:07.070Z,43.30
2023-04-09T03:35:43.370Z,41.30
2023-04-09T03:38:12.596Z,42.72
2023-04-09T03:40:42.737Z,43.65
2023-04-09T03:43:10.756Z,43.30
2023-04-09T03:45:41.529Z,42.75
2023-04-09T03:48:18.359Z,46.83
2023-04-09T03:50:46.657Z,49.92
2023-04-09T03:53:18.381Z,48.15
2023-04-09T03:55:46.878Z,45.33
2023-04-09T03:58:21.863Z,53.33
2023-04-09T04:00:49.692Z,44.47
2023-04-09T04:03:34.491Z,50.83
2023-04-09T04:06:16.738Z,91.88
2023-04-09T04:08:53.555Z,213.10
2023-04-09T04:11:26.709Z,64.53
2023-04-09T04:13:56.552Z,66.13
2023-04-09T04:16:25.385Z,70.97
2023-04-09T04:18:54.549Z,70.90
2023-04-09T04:21:22.752Z,63.03
2023-04-09T04:23:58.173Z,69.95
2023-04-09T04:26:28.713Z,69.13
2023-04-09T04:28:57.180Z,76.32
2023-04-09T04:31:47.779Z,72.60
2023-04-09T04:34:19.200Z,64.25
2023-04-09T04:36:52.073Z,65.68
2023-04-09T04:39:21.007Z,60.00
2023-04-09T04:41:57.262Z,62.70
2023-04-09T04:44:28.263Z,105.55
2023-04-09T04:47:08.582Z,81.53
2023-04-09T04:49:37.514Z,60.95
2023-04-09T04:52:07.922Z,60.22
2023-04-09T04:54:37.052Z,52.70
2023-04-09T04:57:04.853Z,50.50
2023-04-09T04:59:40.924Z,52.58
2023-04-09T05:02:11.841Z,52.47
2023-04-09T05:05:02.954Z,50.47
2023-04-09T05:07:37.473Z,53.00
2023-04-09T05:10:07.773Z,44.92
2023-04-09T05:12:39.558Z,50.42
2023-04-09T05:15:08.757Z,50.88
2023-04-09T05:17:38.332Z,47.17
2023-04-09T05:20:08.462Z,52.72
2023-04-09T05:22:52.775Z,48.95
2023-04-09T05:25:27.441Z,45.75
2023-04-09T05:27:55.984Z,49.40
2023-04-09T05:30:25.941Z,46.50
2023-04-09T05:32:54.406Z,45.35
2023-04-09T05:35:27.209Z,43.85
2023-04-09T05:37:55.057Z,41.13
2023-04-09T05:40:23.303Z,38.50
2023-04-09T05:42:52.110Z,36.03
2023-04-09T05:45:36.603Z,34.95
2023-04-09T05:48:04.511Z,31.90
2023-04-09T05:50:40.676Z,29.27
2023-04-09T05:53:15.886Z,29.05
2023-04-09T05:55:44.031Z,29.58
2023-04-09T05:58:12.657Z,26.15
2023-04-09T06:00:40.846Z,28.13
2023-04-09T06:03:10.538Z,27.00
2023-04-09T06:05:39.267Z,30.90
2023-04-09T06:08:08.518Z,34.78
2023-04-09T06:10:36.693Z,30.15
2023-04-09T06:13:04.350Z,30.73
2023-04-09T06:15:32.776Z,25.33
2023-04-09T06:18:00.491Z,22.92
2023-04-09T06:20:28.591Z,21.77
2023-04-09T06:22:56.276Z,19.50
2023-04-09T06:25:24.538Z,23.27
2023-04-09T06:27:52.224Z,23.17
2023-04-09T06:30:20.375Z,21.77
2023-04-09T06:32:54.495Z,22.70
2023-04-09T06:35:23.634Z,26.40
2023-04-09T06:37:51.433Z,21.02
2023-04-09T06:40:20.739Z,25.73
2023-04-09T06:42:50.397Z,22.75
2023-04-09T06:45:24.030Z,21.40
2023-04-09T06:47:51.692Z,21.98
2023-04-09T06:50:19.721Z,21.60
2023-04-09T06:52:47.370Z,21.50
2023-04-09T06:55:15.565Z,18.77
2023-04-09T06:57:43.362Z,23.02
2023-04-09T07:00:11.791Z,23.00
2023-04-09T07:02:39.941Z,23.45
2023-04-09T07:05:08.632Z,23.75
2023-04-09T07:07:36.306Z,21.30
2023-04-09T07:10:04.430Z,23.23
2023-04-09T07:12:34.616Z,23.35
2023-04-09T07:15:05.239Z,28.00
2023-04-09T07:17:34.015Z,28.02
2023-04-09T07:20:02.286Z,25.90
2023-04-09T07:22:30.761Z,27.20
2023-04-09T07:24:58.700Z,24.20
2023-04-09T07:27:27.894Z,30.05
2023-04-09T07:30:00.032Z,18.08
2023-04-09T07:32:28.610Z,19.27
2023-04-09T07:34:57.418Z,19.40
2023-04-09T07:37:25.638Z,17.27
2023-04-09T07:39:53.883Z,19.48
2023-04-09T07:42:21.948Z,16.10
2023-04-09T07:44:50.152Z,17.50
2023-04-09T07:47:18.014Z,15.85
2023-04-09T07:49:46.221Z,17.85
2023-04-09T07:52:13.824Z,18.38
2023-04-09T07:54:41.797Z,15.13
2023-04-09T07:57:09.443Z,15.73
2023-04-09T07:59:37.531Z,16.58
2023-04-09T08:02:05.588Z,15.75
2023-04-09T08:04:33.827Z,14.40
2023-04-09T08:07:01.485Z,15.15
2023-04-09T08:09:29.396Z,15.70
2023-04-09T08:11:57.356Z,14.45
2023-04-09T08:14:25.501Z,16.15
2023-04-09T08:16:53.390Z,17.30
2023-04-09T08:19:21.490Z,15.13
2023-04-09T08:21:49.688Z,17.98
2023-04-09T08:24:18.378Z,17.67
2023-04-09T08:26:46.329Z,13.25
2023-04-09T08:29:15.043Z,15.60
2023-04-09T08:31:43.229Z,15.15
2023-04-09T08:34:11.295Z,15.38
2023-04-09T08:36:39.513Z,14.60
2023-04-09T08:39:07.552Z,14.85
2023-04-09T08:41:38.254Z,15.27
2023-04-09T08:44:06.246Z,13.45
2023-04-09T08:46:36.953Z,15.88
2023-04-09T08:49:04.997Z,14.82
2023-04-09T08:51:32.753Z,13.32
2023-04-09T08:54:04.477Z,16.27
2023-04-09T08:56:33.040Z,16.33
2023-04-09T08:59:01.022Z,14.93
2023-04-09T09:01:31.049Z,13.90
2023-04-09T09:04:01.988Z,14.75
2023-04-09T09:06:33.227Z,16.55
2023-04-09T09:09:15.088Z,15.75
2023-04-09T09:11:43.724Z,15.88
2023-04-09T09:14:14.261Z,14.45
2023-04-09T09:16:55.548Z,15.50
2023-04-09T09:19:34.279Z,14.90
2023-04-09T09:22:08.054Z,16.20
2023-04-09T09:24:50.670Z,12.90
2023-04-09T09:27:37.155Z,13.77
2023-04-09T09:30:07.029Z,15.20
2023-04-09T09:32:35.653Z,14.27
2023-04-09T09:35:06.226Z,14.00
2023-04-09T09:37:34.763Z,15.50
2023-04-09T09:40:03.031Z,14.95
2023-04-09T09:42:31.858Z,15.80
2023-04-09T09:45:00.786Z,18.83
2023-04-09T09:47:29.753Z,15.38
2023-04-09T09:49:57.729Z,14.63
2023-04-09T09:52:28.358Z,15.15
2023-04-09T09:55:01.313Z,17.95
2023-04-09T09:57:31.249Z,18.23
2023-04-09T10:00:04.510Z,17.77
2023-04-09T10:02:47.830Z,16.10
2023-04-09T10:05:16.576Z,15.23
2023-04-09T10:07:45.044Z,16.70
2023-04-09T10:10:13.252Z,15.02
2023-04-09T10:12:41.993Z,16.27
2023-04-09T10:15:10.609Z,13.93
2023-04-09T10:17:39.022Z,12.98
2023-04-09T10:20:31.201Z,15.27
2023-04-09T10:23:03.301Z,12.68
2023-04-09T10:25:31.318Z,12.60
2023-04-09T10:28:03.439Z,13.30
2023-04-09T10:30:36.182Z,12.23
2023-04-09T10:33:22.073Z,12.73
2023-04-09T10:35:50.209Z,15.48
2023-04-09T10:38:32.782Z,14.50
2023-04-09T10:41:06.362Z,13.20
2023-04-09T10:43:36.545Z,12.60
2023-04-09T10:46:26.173Z,13.27
2023-04-09T10:49:24.370Z,13.95
2023-04-09T10:52:08.002Z,11.55
2023-04-09T10:54:46.408Z,13.05
2023-04-09T10:57:24.613Z,12.77
2023-04-09T10:59:54.786Z,10.25
2023-04-09T11:02:31.977Z,12.60
2023-04-09T11:05:24.846Z,13.45
2023-04-09T11:08:06.256Z,10.50
2023-04-09T11:10:34.549Z,10.77
2023-04-09T11:13:03.244Z,10.32
2023-04-09T11:15:34.565Z,13.30
2023-04-09T11:18:03.331Z,11.50
2023-04-09T11:20:33.410Z,9.70
2023-04-09T11:23:01.722Z,12.07
2023-04-09T11:25:32.304Z,10.23
2023-04-09T11:28:02.658Z,10.45
2023-04-09T11:30:31.343Z,9.35
2023-04-09T11:32:59.310Z,10.95
2023-04-09T11:35:27.410Z,10.90
2023-04-09T11:37:55.465Z,10.07
2023-04-09T11:40:25.760Z,10.02
2023-04-09T11:42:55.704Z,10.85
2023-04-09T11:45:28.057Z,9.50
2023-04-09T11:47:56.574Z,10.48
2023-04-09T11:50:25.047Z,12.15
2023-04-09T11:52:53.256Z,9.05
2023-04-09T11:55:24.852Z,9.93
2023-04-09T11:57:57.477Z,11.45
2023-04-09T12:00:25.507Z,9.50
2023-04-09T12:03:04.969Z,10.13
2023-04-09T12:05:37.113Z,8.55
2023-04-09T12:08:08.702Z,11.23
2023-04-09T12:10:38.596Z,9.10
2023-04-09T12:13:10.563Z,7.82
2023-04-09T12:15:46.226Z,13.45
2023-04-09T12:18:14.642Z,9.20
2023-04-09T12:20:44.293Z,11.27
2023-04-09T12:23:13.472Z,11.77
2023-04-09T12:25:43.066Z,7.38
2023-04-09T12:28:15.891Z,11.32
2023-04-09T12:30:43.972Z,8.38
2023-04-09T12:33:12.179Z,8.75
2023-04-09T12:35:40.042Z,11.38
2023-04-09T12:38:08.081Z,11.70
2023-04-09T12:40:37.024Z,11.23
2023-04-09T12:43:05.656Z,12.35
2023-04-09T12:45:33.864Z,11.82
2023-04-09T12:48:02.228Z,10.55
2023-04-09T12:50:30.077Z,11.43
2023-04-09T12:52:58.065Z,10.88
2023-04-09T12:55:25.807Z,11.38
2023-04-09T12:57:53.702Z,12.55
2023-04-09T13:00:21.541Z,14.40
2023-04-09T13:02:49.995Z,11.07
2023-04-09T13:05:17.777Z,11.25
2023-04-09T13:07:46.177Z,12.75
2023-04-09T13:10:13.847Z,11.15
2023-04-09T13:12:41.903Z,12.27
2023-04-09T13:15:09.873Z,16.23
2023-04-09T13:17:37.836Z,16.42
2023-04-09T13:20:06.044Z,16.17
2023-04-09T13:22:33.948Z,12.93
2023-04-09T13:25:01.805Z,14.45
2023-04-09T13:27:29.788Z,14.70
2023-04-09T13:29:57.529Z,12.88
2023-04-09T13:32:25.635Z,19.50
2023-04-09T13:34:55.292Z,13.93
2023-04-09T13:37:24.569Z,15.52
2023-04-09T13:39:52.362Z,13.68
2023-04-09T13:42:20.281Z,14.75
2023-04-09T13:44:47.966Z,13.07
2023-04-09T13:47:17.130Z,14.65
2023-04-09T13:49:45.361Z,15.15
2023-04-09T13:52:14.858Z,14.43
2023-04-09T13:54:42.623Z,15.95
2023-04-09T13:57:10.710Z,15.13
2023-04-09T13:59:38.405Z,14.32
2023-04-09T14:02:06.558Z,13.20
2023-04-09T14:04:34.523Z,14.02
2023-04-09T14:07:02.591Z,14.20
2023-04-09T14:09:30.635Z,13.60
2023-04-09T14:11:58.674Z,18.02
2023-04-09T14:14:26.721Z,12.73
2023-04-09T14:16:55.416Z,14.15
2023-04-09T14:19:23.702Z,11.70
2023-04-09T14:21:53.335Z,12.63
2023-04-09T14:24:23.176Z,12.40
2023-04-09T14:26:53.613Z,10.88
2023-04-09T14:29:22.135Z,10.15
2023-04-09T14:31:50.308Z,10.52
2023-04-09T14:34:18.158Z,8.15
2023-04-09T14:36:46.017Z,7.95
2023-04-09T14:39:13.854Z,5.65
2023-04-09T14:41:41.877Z,7.30
2023-04-09T14:44:09.597Z,6.32
2023-04-09T14:46:37.599Z,7.32
2023-04-09T14:49:05.337Z,7.35
2023-04-09T14:51:34.007Z,6.35
2023-04-09T14:54:01.839Z,6.68
2023-04-09T14:56:29.827Z,6.90
2023-04-09T14:58:57.702Z,7.13
2023-04-09T15:01:27.165Z,8.75
2023-04-09T15:03:55.837Z,6.85
2023-04-09T15:06:24.032Z,7.80
2023-04-09T15:08:52.071Z,5.53
2023-04-09T15:11:23.008Z,5.10
2023-04-09T15:13:51.527Z,7.68
2023-04-09T15:16:24.817Z,5.10
2023-04-09T15:18:56.206Z,4.65
2023-04-09T15:21:24.530Z,5.60
2023-04-09T15:23:53.114Z,6.28
2023-04-09T15:26:21.427Z,5.63
2023-04-09T15:28:49.418Z,4.05
2023-04-09T15:31:17.413Z,5.50
2023-04-09T15:33:45.754Z,5.97
2023-04-09T15:36:13.759Z,4.55
2023-04-09T15:38:41.483Z,5.65
2023-04-09T15:41:10.565Z,7.00
2023-04-09T15:43:38.286Z,6.70
2023-04-09T15:46:12.542Z,6.78
2023-04-09T15:51:09.058Z,9.35
2023-04-09T15:53:37.009Z,8.52
2023-04-09T15:56:05.573Z,8.50
2023-04-09T15:58:33.382Z,7.05
2023-04-09T16:01:01.557Z,6.72
2023-04-09T16:03:29.400Z,10.52
2023-04-09T16:05:57.285Z,5.50
2023-04-09T16:08:26.242Z,9.20
2023-04-09T16:10:54.214Z,7.57
2023-04-09T16:13:21.813Z,8.45
2023-04-09T16:15:51.145Z,7.30
2023-04-09T16:18:18.914Z,7.68
2023-04-09T16:20:47.161Z,8.30
2023-04-09T16:23:14.813Z,10.27
2023-04-09T16:25:42.886Z,8.02
2023-04-09T16:28:10.712Z,7.57
2023-04-09T16:30:38.654Z,8.45
2023-04-09T16:33:08.747Z,7.47
2023-04-09T16:35:39.442Z,8.38
2023-04-09T16:38:07.853Z,9.07
2023-04-09T16:40:35.965Z,9.80
2023-04-09T16:43:03.887Z,11.18
2023-04-09T16:45:32.113Z,9.00
2023-04-09T16:47:59.939Z,10.20
2023-04-09T16:50:27.888Z,11.10
2023-04-09T16:52:55.611Z,9.55
2023-04-09T16:55:23.719Z,10.95
2023-04-09T16:57:51.395Z,9.70
2023-04-09T17:00:20.916Z,9.15
2023-04-09T17:02:49.054Z,9.55
2023-04-09T17:05:17.974Z,13.18
2023-04-09T17:07:45.845Z,12.25
2023-04-09T17:10:14.694Z,12.07
2023-04-09T17:12:42.820Z,14.07
2023-04-09T17:15:11.344Z,21.02
2023-04-09T17:17:39.027Z,22.80
2023-04-09T17:20:07.704Z,25.35
2023-04-09T17:22:35.675Z,34.80
2023-04-09T17:25:04.810Z,43.65
2023-04-09T17:27:32.520Z,60.08
2023-04-09T17:30:00.522Z,37.67
2023-04-09T17:32:28.247Z,34.70
2023-04-09T17:34:56.172Z,31.50
2023-04-09T17:37:24.279Z,23.20
2023-04-09T17:39:52.213Z,18.20
2023-04-09T17:42:21.920Z,14.93
2023-04-09T17:44:50.585Z,15.20
2023-04-09T17:47:18.773Z,15.20
2023-04-09T17:49:46.784Z,17.15
2023-04-09T17:52:14.864Z,13.65
2023-04-09T17:54:45.506Z,14.30
2023-04-09T17:57:14.035Z,15.95
2023-04-09T17:59:41.957Z,12.95
2023-04-09T18:02:09.846Z,16.08
2023-04-09T18:04:38.379Z,16.00
2023-04-09T18:07:06.387Z,15.35
2023-04-09T18:09:34.507Z,15.40
2023-04-09T18:12:02.832Z,17.23
2023-04-09T18:14:32.466Z,22.60
2023-04-09T18:17:01.123Z,17.10
2023-04-09T18:19:29.247Z,16.98
2023-04-09T18:21:56.951Z,17.17
2023-04-09T18:24:26.279Z,17.13
2023-04-09T18:26:53.876Z,19.00
2023-04-09T18:29:21.888Z,19.38
2023-04-09T18:31:49.481Z,20.75
2023-04-09T18:34:17.823Z,19.50
2023-04-09T18:36:45.562Z,20.77
2023-04-09T18:39:13.499Z,20.00
2023-04-09T18:41:42.407Z,19.67
2023-04-09T18:44:10.840Z,18.90
2023-04-09T18:46:38.625Z,20.73
2023-04-09T18:49:07.094Z,18.33
2023-04-09T18:51:34.713Z,19.90
2023-04-09T18:54:02.849Z,20.77
2023-04-09T18:56:30.442Z,19.88
2023-04-09T18:58:58.318Z,22.67
2023-04-09T19:01:26.042Z,20.88
2023-04-09T19:03:54.502Z,27.08
2023-04-09T19:06:23.382Z,20.23
2023-04-09T19:08:57.218Z,19.33
2023-04-09T19:11:26.077Z,20.10
2023-04-09T19:13:54.089Z,18.77
2023-04-09T19:16:22.082Z,20.83
2023-04-09T19:18:50.028Z,21.38
2023-04-09T19:21:18.618Z,21.17
2023-04-09T19:23:46.855Z,18.40
2023-04-09T19:26:14.800Z,20.67
2023-04-09T19:28:42.752Z,17.30
2023-04-09T19:31:12.721Z,17.75
2023-04-09T19:33:40.751Z,21.70
2023-04-09T19:36:08.417Z,20.23
2023-04-09T19:38:36.460Z,22.40
2023-04-09T19:41:04.389Z,24.52
2023-04-09T19:43:32.357Z,22.50
2023-04-09T19:46:04.288Z,19.77
2023-04-09T19:48:32.353Z,22.67
2023-04-09T19:50:59.924Z,21.83
2023-04-09T19:53:28.009Z,20.70
2023-04-09T19:55:55.671Z,22.35
2023-04-09T19:58:24.069Z,21.50
2023-04-09T20:00:51.746Z,21.42
2023-04-09T20:03:19.773Z,23.35
2023-04-09T20:05:47.866Z,22.73
2023-04-09T20:08:16.063Z,22.95
2023-04-09T20:10:46.447Z,25.63
2023-04-09T20:13:14.630Z,29.02
2023-04-09T20:15:42.924Z,27.60
2023-04-09T20:18:11.214Z,28.65
2023-04-09T20:20:38.826Z,26.77
2023-04-09T20:23:06.687Z,29.00
2023-04-09T20:25:36.604Z,25.70
2023-04-09T20:28:04.894Z,29.00
2023-04-09T20:30:32.650Z,29.98
2023-04-09T20:33:01.354Z,27.77
2023-04-09T20:35:29.224Z,31.83
2023-04-09T20:37:57.229Z,28.55
2023-04-09T20:40:25.121Z,33.72
2023-04-09T20:42:53.078Z,27.33
2023-04-09T20:45:20.796Z,25.88
2023-04-09T20:47:49.748Z,29.67
2023-04-09T20:50:19.392Z,28.95
2023-04-09T20:52:47.922Z,32.80
2023-04-09T20:55:15.596Z,33.20
2023-04-09T20:57:43.898Z,29.83
2023-04-09T21:00:12.167Z,30.73
2023-04-09T21:02:41.109Z,34.42
2023-04-09T21:05:21.768Z,32.67
2023-04-09T21:07:54.509Z,28.50
2023-04-09T21:10:22.166Z,25.77
2023-04-09T21:12:50.205Z,28.65
2023-04-09T21:15:17.928Z,31.52
2023-04-09T21:17:46.064Z,28.70
2023-04-09T21:20:15.182Z,23.67
2023-04-09T21:22:43.151Z,27.67
2023-04-09T21:25:12.646Z,27.52
2023-04-09T21:27:42.131Z,26.67
2023-04-09T21:30:10.031Z,26.67
2023-04-09T21:32:38.525Z,29.70
2023-04-09T21:35:06.657Z,32.60
2023-04-09T21:37:36.315Z,31.15
2023-04-09T21:40:04.779Z,29.05
2023-04-09T21:42:32.651Z,26.88
2023-04-09T21:45:01.415Z,27.13
2023-04-09T21:47:29.468Z,28.50
2023-04-09T21:49:57.655Z,27.42
2023-04-09T21:52:26.312Z,26.60
2023-04-09T21:54:54.073Z,29.73
2023-04-09T21:57:22.686Z,29.10
2023-04-09T21:59:50.397Z,31.58
2023-04-09T22:02:18.532Z,29.73
2023-04-09T22:04:46.610Z,30.70
2023-04-09T22:07:14.557Z,28.38
2023-04-09T22:09:42.243Z,28.15
2023-04-09T22:12:10.171Z,26.23
2023-04-09T22:14:39.168Z,30.15
2023-04-09T22:17:08.844Z,31.42
2023-04-09T22:19:36.479Z,28.65
2023-04-09T22:22:04.603Z,27.15
2023-04-09T22:24:32.297Z,30.83
2023-04-09T22:27:01.670Z,31.38
2023-04-09T22:29:29.698Z,30.45
2023-04-09T22:31:58.121Z,31.20
2023-04-09T22:34:26.309Z,28.65
2023-04-09T22:36:54.315Z,28.17
2023-04-09T22:39:21.966Z,29.23
2023-04-09T22:41:49.879Z,31.25
2023-04-09T22:44:17.610Z,31.40
2023-04-09T22:46:46.301Z,28.70
2023-04-09T22:49:14.256Z,29.90
2023-04-09T22:51:42.704Z,28.60
2023-04-09T22:54:10.493Z,27.35
2023-04-09T22:56:38.623Z,26.08
2023-04-09T22:59:06.309Z,33.33
2023-04-09T23:01:34.408Z,32.22
2023-04-09T23:04:02.165Z,38.70
2023-04-09T23:06:31.012Z,30.83
2023-04-09T23:09:00.027Z,31.77
2023-04-09T23:11:28.192Z,37.80
2023-04-09T23:13:56.045Z,31.52
2023-04-09T23:16:24.068Z,32.08
2023-04-09T23:18:51.889Z,33.75
2023-04-09T23:21:19.950Z,33.65
2023-04-09T23:23:47.646Z,29.27
2023-04-09T23:26:15.586Z,30.83
2023-04-09T23:28:43.210Z,29.65
2023-04-09T23:31:11.507Z,33.75
2023-04-09T23:33:39.237Z,31.48
2023-04-09T23:36:07.513Z,33.95
2023-04-09T23:38:35.380Z,31.20
2023-04-09T23:41:03.389Z,35.97
2023-04-09T23:43:31.215Z,33.67
2023-04-09T23:45:59.093Z,31.50
2023-04-09T23:48:26.793Z,33.97
2023-04-09T23:50:54.780Z,37.22
2023-04-09T23:53:22.379Z,43.10
2023-04-09T23:55:51.094Z,42.58
2023-04-09T23:58:18.963Z,38.65
